X  Luk Metar data     LICJ Falcone–Borsellino Airport
Temperatur
27°C Temperatur
19°C Duggpunkt
62% Fugtighed



Vind
23 KM/T
14 MPT
6 M/S
12 KNOB



40°
Nuværende forhold

Klart Klart
Tryk 1015.92 (hPa) - 30 (inHg)
Sigt 6.2 (mil) - 10 (km)
Lufthavn
Lufthavnskode LICJ

Lokation: Falcone–Borsellino Airport
Afstand: 55 (km)

Metar:
LICJ 191150Z 04012KT CAVOK 27/19 Q1016

Tid: 19-06-2021 13:50 CEST